Time;durP1;ratioP1;P1;durP2;ratioP2;P2;SDS_P1;SDS_P2;PMS_P1;PMS_P2;Temp;Humidity;BMP_temperature;BMP_pressure;BME280_temperature;BME280_humidity;BME280_pressure;Samples;Min_cycle;Max_cycle;Signal;HPM_P1;HPM_P2
2022/06/27 00:01:35;;;;;;;198.18;175.43;;;24.00;1.00;;;;;;4999529;28;20632;-54
2022/06/27 00:04:01;;;;;;;240.27;196.43;;;;;;;;;;4974944;28;20567;-54
2022/06/27 00:06:27;;;;;;;255.45;195.43;;;24.20;1.00;;;;;;5001519;28;20225;-54
2022/06/27 00:08:52;;;;;;;272.90;199.20;;;24.00;20.60;;;;;;5000142;28;20211;-54
2022/06/27 00:11:19;;;;;;;207.43;177.50;;;24.20;12.00;;;;;;5000509;28;20236;-55
2022/06/27 00:13:45;;;;;;;240.07;194.23;;;24.00;1.00;;;;;;4998853;28;20208;-54
2022/06/27 00:16:11;;;;;;;220.00;184.43;;;23.80;1.00;;;;;;4984145;28;20247;-54
2022/06/27 00:18:37;;;;;;;264.13;200.90;;;;;;;;;;4998668;28;20221;-54
2022/06/27 00:21:03;;;;;;;282.63;204.43;;;24.00;1.00;;;;;;4997744;28;20292;-54
2022/06/27 00:23:29;;;;;;;217.55;192.05;;;23.80;99.90;;;;;;5004058;28;20181;-54
2022/06/27 00:25:54;;;;;;;224.68;190.93;;;23.90;99.90;;;;;;4995397;28;20236;-54
2022/06/27 00:28:20;;;;;;;226.38;187.73;;;23.90;99.90;;;;;;5001235;28;20217;-54
2022/06/27 00:30:45;;;;;;;225.65;185.40;;;23.90;7.30;;;;;;4999987;28;20227;-54
2022/06/27 00:33:11;;;;;;;256.45;199.98;;;;;;;;;;4993868;28;20181;-54
2022/06/27 00:35:37;;;;;;;277.65;206.40;;;23.60;1.00;;;;;;5000030;28;20220;-54
2022/06/27 00:38:03;;;;;;;253.48;192.45;;;23.60;99.90;;;;;;4993264;28;20311;-54
2022/06/27 00:40:28;;;;;;;210.25;176.50;;;23.70;99.90;;;;;;4992301;28;20348;-54
2022/06/27 00:42:54;;;;;;;233.05;185.75;;;23.50;1.00;;;;;;4991039;28;20713;-54
2022/06/27 00:45:19;;;;;;;267.70;189.38;;;23.80;99.90;;;;;;4999921;28;20228;-54
2022/06/27 00:47:45;;;;;;;240.00;184.40;;;;;;;;;;5000808;28;20204;-54
2022/06/27 00:50:12;;;;;;;250.38;187.88;;;;;;;;;;5000205;28;20224;-54
2022/06/27 00:52:37;;;;;;;245.38;185.65;;;23.80;99.90;;;;;;5000664;28;20270;-54
2022/06/27 00:55:05;;;;;;;188.98;168.07;;;23.50;30.00;;;;;;4996854;28;20360;-54
2022/06/27 00:57:31;;;;;;;255.35;195.30;;;23.60;1.00;;;;;;4991723;28;20236;-54
2022/06/27 00:59:57;;;;;;;261.02;187.35;;;;;;;;;;4993784;28;20219;-54
2022/06/27 01:02:22;;;;;;;252.25;185.65;;;23.40;99.90;;;;;;4995986;28;20221;-54
2022/06/27 01:04:48;;;;;;;259.85;194.30;;;23.40;1.00;;;;;;4996356;28;20213;-54
2022/06/27 01:07:14;;;;;;;260.95;188.98;;;;;;;;;;4987318;28;20217;-54
2022/06/27 01:09:41;;;;;;;226.98;181.75;;;23.30;1.00;;;;;;4985861;28;20268;-54
2022/06/27 01:12:07;;;;;;;242.45;180.73;;;23.10;99.90;;;;;;4998730;28;20220;-54
2022/06/27 01:14:32;;;;;;;230.95;174.32;;;23.10;99.90;;;;;;4993030;28;20200;-54
2022/06/27 01:16:59;;;;;;;221.60;172.63;;;23.20;99.90;;;;;;4988376;28;20232;-54
2022/06/27 01:19:25;;;;;;;267.08;194.30;;;;;;;;;;4994400;28;20638;-54
2022/06/27 01:21:56;;;;;;;284.20;196.77;;;23.10;1.00;;;;;;4993766;28;20209;-54
2022/06/27 01:24:24;;;;;;;229.38;177.25;;;23.00;1.00;;;;;;4991536;28;20213;-54
2022/06/27 01:26:50;;;;;;;217.65;176.65;;;22.90;1.00;;;;;;5000549;28;20259;-54
2022/06/27 01:29:17;;;;;;;228.95;173.52;;;22.70;1.00;;;;;;5005529;28;20220;-54
2022/06/27 01:31:43;;;;;;;237.95;172.55;;;22.90;1.00;;;;;;5000557;28;20216;-54
2022/06/27 01:34:09;;;;;;;289.50;188.73;;;;;;;;;;4999386;28;20220;-54
2022/06/27 01:36:41;;;;;;;204.30;165.60;;;;;;;;;;4997549;28;20304;-54
2022/06/27 01:39:18;;;;;;;277.67;193.00;;;22.60;1.00;;;;;;4993263;28;20858;-54
2022/06/27 01:41:51;;;;;;;221.05;174.10;;;22.60;1.00;;;;;;4997997;28;20179;-54
2022/06/27 01:44:18;;;;;;;328.95;200.75;;;22.60;1.00;;;;;;4996087;28;20224;-54
2022/06/27 01:47:03;;;;;;;210.10;164.70;;;22.60;1.00;;;;;;5000922;28;20220;-54
2022/06/27 01:49:30;;;;;;;235.48;168.93;;;22.70;1.00;;;;;;5003179;28;20274;-54
2022/06/27 01:51:57;;;;;;;229.80;170.13;;;22.70;1.00;;;;;;4999459;28;20227;-54
2022/06/27 01:54:23;;;;;;;313.05;190.13;;;22.60;1.00;;;;;;4991166;28;20229;-54
2022/06/27 01:56:50;;;;;;;256.13;177.32;;;22.80;1.00;;;;;;4991474;28;20213;-56
2022/06/27 01:59:18;;;;;;;193.32;152.48;;;22.70;1.00;;;;;;4995925;28;20227;-54
2022/06/27 02:01:45;;;;;;;264.27;173.38;;;23.10;1.00;;;;;;5000334;28;20220;-54
2022/06/27 02:04:12;;;;;;;212.65;159.20;;;22.50;1.00;;;;;;5001628;28;20231;-54
2022/06/27 02:06:39;;;;;;;192.77;157.13;;;22.70;1.00;;;;;;4995619;28;20936;-54
2022/06/27 02:09:08;;;;;;;253.57;175.80;;;22.60;1.00;;;;;;4992824;28;20677;-54
2022/06/27 02:11:36;;;;;;;270.50;180.70;;;22.20;1.00;;;;;;5003052;28;21252;-54
2022/06/27 02:14:02;;;;;;;244.82;170.63;;;22.60;1.00;;;;;;4992880;28;20344;-54
2022/06/27 02:16:28;;;;;;;269.45;180.65;;;;;;;;;;4989994;28;20216;-54
2022/06/27 02:18:53;;;;;;;227.63;162.55;;;23.10;1.00;;;;;;5002344;28;20209;-54
2022/06/27 02:21:22;;;;;;;263.55;179.65;;;22.30;9.60;;;;;;4992757;28;20291;-54
2022/06/27 02:23:48;;;;;;;218.70;165.50;;;22.20;1.00;;;;;;5002306;28;20556;-54
2022/06/27 02:26:15;;;;;;;304.35;184.00;;;22.20;19.00;;;;;;4991353;28;20578;-54
2022/06/27 02:28:43;;;;;;;168.85;143.30;;;22.20;1.00;;;;;;4999333;28;20892;-54
2022/06/27 02:31:10;;;;;;;221.38;163.43;;;22.10;1.00;;;;;;4996504;28;20677;-54
2022/06/27 02:33:38;;;;;;;166.88;148.48;;;22.10;29.50;;;;;;4999595;28;20274;-54
2022/06/27 02:36:06;;;;;;;230.10;170.98;;;20.90;1.00;;;;;;4997787;28;20228;-54
2022/06/27 02:38:33;;;;;;;246.98;172.68;;;22.40;37.20;;;;;;4994869;28;20221;-54
2022/06/27 02:41:02;;;;;;;189.52;152.35;;;22.10;39.00;;;;;;4987678;28;20224;-54
2022/06/27 02:43:29;;;;;;;196.30;154.85;;;22.00;24.60;;;;;;4999825;28;20604;-54
2022/06/27 02:45:56;;;;;;;194.80;150.50;;;21.90;13.90;;;;;;4994502;28;20680;-54
2022/06/27 02:48:23;;;;;;;221.07;157.93;;;21.60;60.40;;;;;;4977154;28;20327;-54
2022/06/27 02:50:54;;;;;;;190.13;152.82;;;21.70;23.90;;;;;;4998148;28;20169;-54
2022/06/27 02:53:25;;;;;;;329.83;182.40;;;21.70;25.40;;;;;;4992942;28;20222;-54
2022/06/27 02:55:58;;;;;;;248.15;165.77;;;21.50;73.40;;;;;;4998020;28;20696;-54
2022/06/27 02:58:47;;;;;;;186.68;148.90;;;21.50;75.50;;;;;;5001592;28;20216;-54
2022/06/27 03:01:15;;;;;;;209.13;154.65;;;21.60;60.90;;;;;;4994297;28;20700;-54
2022/06/27 03:03:42;;;;;;;181.38;144.43;;;21.60;22.60;;;;;;5000175;28;20221;-54
2022/06/27 03:06:08;;;;;;;192.43;148.82;;;;;;;;;;4998105;28;20569;-54
2022/06/27 03:08:42;;;;;;;214.23;157.23;;;21.70;17.90;;;;;;5000003;28;20185;-54
2022/06/27 03:11:17;;;;;;;203.85;140.18;;;21.70;18.40;;;;;;4991580;28;20295;-54
2022/06/27 03:13:44;;;;;;;235.70;156.40;;;21.80;43.10;;;;;;4987218;28;20272;-54
2022/06/27 03:16:10;;;;;;;232.70;164.77;;;;;;;;;;4985432;28;20713;-54
2022/06/27 03:18:36;;;;;;;314.50;187.60;;;21.70;6.30;;;;;;4996229;28;20312;-54
2022/06/27 03:21:02;;;;;;;217.77;159.13;;;21.70;6.00;;;;;;4998828;28;20276;-54
2022/06/27 03:23:28;;;;;;;205.98;159.15;;;;;;;;;;4994609;28;22472;-54
2022/06/27 03:25:54;;;;;;;229.57;162.02;;;21.70;6.50;;;;;;4996853;28;20602;-58
2022/06/27 03:28:20;;;;;;;237.68;157.60;;;21.70;5.10;;;;;;4997015;28;20236;-54
2022/06/27 03:30:46;;;;;;;142.18;128.35;;;;;;;;;;4996471;28;20232;-54
2022/06/27 03:33:12;;;;;;;188.18;153.85;;;;;;;;;;4995347;28;20193;-54
2022/06/27 03:35:38;;;;;;;256.20;166.60;;;21.70;13.70;;;;;;4997029;28;20216;-54
2022/06/27 03:38:04;;;;;;;213.45;161.60;;;21.80;12.80;;;;;;4996696;28;20219;-54
2022/06/27 03:40:30;;;;;;;166.07;146.80;;;21.80;10.50;;;;;;4995207;28;20216;-54
2022/06/27 03:42:56;;;;;;;237.63;165.60;;;;;;;;;;4989881;28;20213;-54
2022/06/27 03:45:21;;;;;;;231.38;168.07;;;22.10;35.40;;;;;;4989473;28;20240;-54
2022/06/27 03:47:50;;;;;;;230.95;162.75;;;21.90;1.00;;;;;;4986780;28;20240;-54
2022/06/27 03:50:16;;;;;;;281.77;180.35;;;21.80;24.20;;;;;;4991252;28;21203;-54
2022/06/27 03:52:42;;;;;;;173.25;153.98;;;21.90;1.00;;;;;;4993748;28;20209;-54
2022/06/27 03:55:09;;;;;;;180.77;156.43;;;22.10;28.20;;;;;;4993050;28;20232;-54
2022/06/27 03:57:38;;;;;;;273.70;179.15;;;22.00;32.70;;;;;;4986210;28;20231;-54
2022/06/27 04:00:08;;;;;;;272.13;181.90;;;22.00;28.70;;;;;;4997023;28;20689;-54
2022/06/27 04:02:34;;;;;;;221.20;167.02;;;22.20;34.00;;;;;;4978692;28;20185;-54
2022/06/27 04:05:00;;;;;;;269.77;179.63;;;;;;;;;;4990682;28;20240;-54
2022/06/27 04:07:26;;;;;;;170.07;151.02;;;22.10;36.60;;;;;;4996647;28;20224;-54
2022/06/27 04:09:52;;;;;;;191.68;160.93;;;;;;;;;;4993826;28;20204;-54
2022/06/27 04:12:17;;;;;;;228.95;173.52;;;22.40;30.80;;;;;;5000286;28;20232;-54
2022/06/27 04:14:43;;;;;;;209.65;153.10;;;22.10;27.60;;;;;;4991471;28;20263;-54
2022/06/27 04:17:08;;;;;;;219.77;166.15;;;;;;;;;;4972436;28;20220;-54
2022/06/27 04:19:34;;;;;;;248.95;166.77;;;22.30;24.40;;;;;;4988956;28;20212;-54
2022/06/27 04:21:59;;;;;;;196.20;155.02;;;22.50;5.20;;;;;;5002370;28;20216;-54
2022/06/27 04:24:25;;;;;;;237.45;165.68;;;22.60;5.70;;;;;;4987070;28;20387;-56
2022/06/27 04:26:51;;;;;;;265.58;177.20;;;;;;;;;;4994938;28;20213;-54
2022/06/27 04:29:16;;;;;;;237.75;170.05;;;22.40;1.00;;;;;;4972088;28;20224;-54
2022/06/27 04:31:42;;;;;;;191.73;157.05;;;22.60;1.00;;;;;;4998877;28;20213;-54
2022/06/27 04:34:12;;;;;;;199.95;155.63;;;;;;;;;;4976129;28;20251;-54
2022/06/27 04:36:37;;;;;;;247.05;170.68;;;22.90;1.00;;;;;;4991707;28;20824;-54
2022/06/27 04:39:03;;;;;;;223.63;165.00;;;22.70;1.00;;;;;;4991856;28;20184;-54
2022/06/27 04:41:29;;;;;;;251.10;176.27;;;22.90;1.00;;;;;;4992204;28;20227;-54
2022/06/27 04:43:55;;;;;;;177.35;158.30;;;22.80;1.00;;;;;;4993873;28;20675;-56
2022/06/27 04:46:22;;;;;;;231.35;172.73;;;22.80;1.00;;;;;;4961536;28;20223;-54
2022/06/27 04:48:48;;;;;;;251.05;178.40;;;22.90;1.00;;;;;;4993009;28;20609;-54
2022/06/27 04:51:14;;;;;;;254.40;178.23;;;23.00;1.00;;;;;;4990170;28;20199;-54
2022/06/27 04:53:41;;;;;;;220.40;168.55;;;22.80;1.00;;;;;;4997098;28;20293;-54
2022/06/27 04:56:08;;;;;;;264.73;175.45;;;22.90;1.00;;;;;;4982586;28;20278;-54
2022/06/27 04:58:34;;;;;;;313.98;190.88;;;22.90;1.00;;;;;;4992664;28;20220;-56
2022/06/27 05:01:00;;;;;;;239.50;164.93;;;;;;;;;;4996018;28;20228;-56
2022/06/27 05:03:26;;;;;;;234.57;171.27;;;23.00;1.00;;;;;;5002969;28;20224;-54
2022/06/27 05:05:53;;;;;;;230.82;166.32;;;23.00;1.00;;;;;;4990887;28;20200;-53
2022/06/27 05:08:20;;;;;;;282.15;187.25;;;23.20;1.00;;;;;;5000276;28;21345;-54
2022/06/27 05:10:46;;;;;;;242.45;177.88;;;23.00;1.00;;;;;;4999255;28;20220;-54
2022/06/27 05:13:12;;;;;;;214.23;166.05;;;;;;;;;;5006064;28;20332;-54
2022/06/27 05:15:39;;;;;;;288.92;192.13;;;;;;;;;;4993536;28;20224;-55
2022/06/27 05:18:04;;;;;;;308.33;204.15;;;23.20;1.00;;;;;;4970262;28;20189;-55
2022/06/27 05:20:30;;;;;;;299.30;205.15;;;23.30;1.00;;;;;;4989473;28;20204;-57
2022/06/27 05:22:57;;;;;;;238.70;189.00;;;23.20;1.00;;;;;;4993426;28;20519;-55
2022/06/27 05:25:23;;;;;;;251.00;189.98;;;23.40;1.00;;;;;;4997412;28;20220;-55
2022/06/27 05:27:49;;;;;;;297.05;206.50;;;23.60;1.00;;;;;;4995283;28;20212;-55
2022/06/27 05:30:15;;;;;;;252.88;194.15;;;23.30;1.00;;;;;;4999381;28;20181;-55
2022/06/27 05:32:42;;;;;;;230.45;195.45;;;23.40;1.00;;;;;;4995219;28;20239;-55
2022/06/27 05:35:08;;;;;;;309.85;215.13;;;23.50;1.00;;;;;;4982130;28;20240;-55
2022/06/27 05:37:38;;;;;;;290.35;206.50;;;23.70;1.00;;;;;;4973508;28;20301;-55
2022/06/27 05:40:08;;;;;;;245.82;194.57;;;23.80;1.00;;;;;;4994542;28;20338;-55
2022/06/27 05:42:34;;;;;;;314.00;221.88;;;23.90;1.00;;;;;;4999384;28;20232;-55
2022/06/27 05:45:01;;;;;;;416.05;253.63;;;;;;;;;;5000653;28;20255;-57
2022/06/27 05:47:28;;;;;;;282.98;207.15;;;24.00;1.00;;;;;;4998483;28;20196;-54
2022/06/27 05:49:54;;;;;;;292.02;196.98;;;23.90;1.00;;;;;;4993716;28;20216;-56
2022/06/27 05:52:21;;;;;;;310.27;202.95;;;24.10;1.00;;;;;;4979256;28;20779;-54
2022/06/27 05:54:47;;;;;;;399.00;224.32;;;;;;;;;;4984596;28;20217;-53
2022/06/27 05:57:15;;;;;;;283.92;191.27;;;;;;;;;;4979011;28;20227;-53
2022/06/27 05:59:41;;;;;;;381.20;225.25;;;24.40;1.00;;;;;;4967876;28;20628;-53
2022/06/27 06:02:07;;;;;;;240.02;198.10;;;24.40;1.00;;;;;;4985092;28;20223;-53
2022/06/27 06:04:33;;;;;;;340.27;217.10;;;24.70;1.00;;;;;;4982117;28;20585;-54
2022/06/27 06:06:59;;;;;;;392.30;239.43;;;24.80;1.00;;;;;;4983462;28;20228;-54
2022/06/27 06:09:25;;;;;;;295.30;199.82;;;24.90;1.00;;;;;;4981529;28;20225;-51
2022/06/27 06:11:51;;;;;;;339.05;223.13;;;;;;;;;;4987603;28;20185;-51
2022/06/27 06:14:21;;;;;;;294.73;213.82;;;25.00;1.00;;;;;;4980580;28;20290;-51
2022/06/27 06:16:47;;;;;;;283.83;209.43;;;24.90;1.00;;;;;;4991208;28;20256;-51
2022/06/27 06:19:13;;;;;;;259.40;201.05;;;;;;;;;;4989961;28;20508;-51
2022/06/27 06:21:40;;;;;;;320.98;213.63;;;25.40;1.00;;;;;;4998174;28;20266;-51
2022/06/27 06:24:06;;;;;;;366.20;230.55;;;25.20;1.00;;;;;;4989317;28;20232;-51
2022/06/27 06:26:32;;;;;;;336.98;223.93;;;;;;;;;;4982745;28;20274;-51
2022/06/27 06:29:05;;;;;;;289.15;210.52;;;25.60;99.90;;;;;;4991310;28;20248;-51
2022/06/27 06:31:31;;;;;;;328.67;220.50;;;25.40;1.00;;;;;;4984022;28;20299;-51
2022/06/27 06:33:57;;;;;;;365.75;228.02;;;;;;;;;;4989508;28;20231;-51
2022/06/27 06:36:23;;;;;;;332.55;220.63;;;25.30;1.00;;;;;;4971175;28;20236;-51
2022/06/27 06:38:51;;;;;;;353.10;236.90;;;25.40;1.00;;;;;;4997054;28;20224;-51
2022/06/27 06:41:17;;;;;;;424.10;259.17;;;25.40;1.00;;;;;;4979967;28;20220;-51
2022/06/27 06:43:45;;;;;;;230.93;203.93;;;25.60;1.00;;;;;;4996005;28;20633;-51
2022/06/27 06:46:11;;;;;;;389.80;259.10;;;;;;;;;;4994430;28;21081;-51
2022/06/27 06:48:38;;;;;;;261.10;222.80;;;25.50;1.00;;;;;;4994471;28;20312;-51
2022/06/27 06:51:05;;;;;;;295.77;239.60;;;25.60;1.00;;;;;;4992310;28;20184;-51
2022/06/27 06:53:31;;;;;;;267.48;228.88;;;25.70;99.90;;;;;;4995833;28;20192;-51
2022/06/27 06:55:57;;;;;;;247.15;220.07;;;25.80;1.00;;;;;;4997934;28;20604;-51
2022/06/27 06:58:25;;;;;;;276.80;232.45;;;25.80;1.00;;;;;;5000746;28;20696;-51
2022/06/27 07:00:51;;;;;;;306.25;247.52;;;;;;;;;;4996384;28;20216;-51
2022/06/27 07:03:18;;;;;;;349.00;259.90;;;25.80;1.00;;;;;;4998734;28;20574;-54
2022/06/27 07:05:45;;;;;;;294.08;234.93;;;26.00;99.90;;;;;;4994528;28;20205;-51
2022/06/27 07:08:11;;;;;;;293.60;238.75;;;26.30;99.90;;;;;;4995490;28;20217;-51
2022/06/27 07:10:36;;;;;;;321.60;254.20;;;26.10;99.90;;;;;;4992134;28;20236;-51
2022/06/27 07:13:03;;;;;;;341.45;258.58;;;26.20;95.60;;;;;;4996305;28;20221;-51
2022/06/27 07:15:29;;;;;;;310.00;243.32;;;26.40;99.60;;;;;;4987502;28;20869;-51
2022/06/27 07:17:54;;;;;;;347.73;255.30;;;26.50;99.90;;;;;;4991642;28;20196;-51
2022/06/27 07:20:20;;;;;;;282.13;236.95;;;26.80;1.00;;;;;;4989178;28;20216;-51
2022/06/27 07:22:48;;;;;;;419.40;270.73;;;26.70;1.00;;;;;;4986727;28;21840;-51
2022/06/27 07:25:13;;;;;;;415.40;270.15;;;26.70;1.00;;;;;;4981912;28;20254;-51
2022/06/27 07:27:41;;;;;;;299.83;232.77;;;26.80;99.90;;;;;;4982484;28;20327;-51
2022/06/27 07:30:11;;;;;;;420.08;278.85;;;26.70;99.90;;;;;;4993868;28;20205;-50
2022/06/27 07:32:39;;;;;;;371.25;283.02;;;26.80;99.90;;;;;;4973518;28;20192;-54
2022/06/27 07:35:06;;;;;;;344.10;262.48;;;26.90;96.90;;;;;;4989376;28;20220;-54
2022/06/27 07:37:33;;;;;;;308.60;251.00;;;26.90;1.00;;;;;;4980876;28;20215;-54
2022/06/27 07:39:59;;;;;;;405.33;279.30;;;;;;;;;;4978771;28;20248;-54
2022/06/27 07:42:25;;;;;;;409.48;284.48;;;27.20;1.00;;;;;;4983390;28;20225;-54
2022/06/27 07:44:51;;;;;;;416.63;290.20;;;;;;;;;;4974300;28;20216;-53
2022/06/27 07:47:17;;;;;;;342.10;274.23;;;27.30;99.90;;;;;;4989631;28;21106;-54
2022/06/27 07:49:42;;;;;;;281.17;249.18;;;27.30;99.90;;;;;;4992554;28;20212;-54
2022/06/27 07:52:08;;;;;;;381.92;275.30;;;;;;;;;;4976433;28;20306;-54
2022/06/27 07:54:35;;;;;;;310.52;263.65;;;;;;;;;;4999326;28;20217;-54
2022/06/27 07:57:02;;;;;;;302.83;256.77;;;27.60;99.90;;;;;;4999491;28;20725;-54
2022/06/27 07:59:28;;;;;;;299.27;245.65;;;27.90;99.90;;;;;;4998018;28;20234;-54
2022/06/27 08:01:53;;;;;;;299.35;254.30;;;27.80;1.00;;;;;;4994802;28;20824;-54
2022/06/27 08:04:19;;;;;;;292.80;251.23;;;27.90;54.20;;;;;;4994004;28;20262;-55
2022/06/27 08:06:50;;;;;;;276.95;245.57;;;28.00;1.00;;;;;;4998508;28;20216;-54
2022/06/27 08:09:21;;;;;;;395.60;290.27;;;28.20;1.00;;;;;;4995451;28;20201;-53
2022/06/27 08:11:47;;;;;;;290.98;241.10;;;;;;;;;;4996529;28;20185;-54
2022/06/27 08:14:17;;;;;;;399.67;289.40;;;28.40;99.90;;;;;;4981205;28;20213;-54
2022/06/27 08:16:45;;;;;;;345.98;265.65;;;28.40;99.90;;;;;;4986241;28;20221;-54
2022/06/27 08:19:11;;;;;;;464.70;308.85;;;28.40;35.80;;;;;;4982895;28;20316;-54
2022/06/27 08:21:39;;;;;;;309.15;258.00;;;28.40;18.00;;;;;;4986781;28;20344;-54
2022/06/27 08:24:07;;;;;;;319.13;270.42;;;28.50;1.00;;;;;;4990026;28;20185;-54
2022/06/27 08:26:34;;;;;;;380.23;296.38;;;28.60;99.90;;;;;;4994624;28;20271;-53
2022/06/27 08:29:00;;;;;;;317.08;271.83;;;28.60;1.00;;;;;;4992817;28;20583;-54
2022/06/27 08:31:27;;;;;;;448.27;326.33;;;28.70;1.00;;;;;;4991514;28;22665;-54
2022/06/27 08:33:59;;;;;;;370.23;279.33;;;28.70;1.00;;;;;;4984669;28;20224;-54
2022/06/27 08:36:27;;;;;;;361.38;277.95;;;27.80;1.00;;;;;;4991785;28;20232;-54
2022/06/27 08:38:53;;;;;;;354.48;277.40;;;28.80;1.00;;;;;;4984709;28;20185;-54
2022/06/27 08:41:21;;;;;;;482.98;314.17;;;29.00;1.00;;;;;;4978312;28;20212;-54
2022/06/27 08:44:00;;;;;;;554.13;353.00;;;29.00;1.00;;;;;;4988514;28;20656;-54
2022/06/27 08:46:26;;;;;;;569.97;351.90;;;29.30;53.90;;;;;;4987662;28;20219;-54
2022/06/27 08:48:52;;;;;;;339.27;282.17;;;29.20;99.90;;;;;;4985580;28;20224;-54
2022/06/27 08:51:18;;;;;;;377.88;295.38;;;29.40;10.50;;;;;;4985775;28;20193;-54
2022/06/27 08:53:44;;;;;;;351.80;287.55;;;29.30;1.00;;;;;;4989865;28;20188;-54
2022/06/27 08:56:13;;;;;;;362.10;305.25;;;29.30;99.90;;;;;;4985131;28;20255;-54
2022/06/27 08:58:46;;;;;;;387.77;309.50;;;29.40;99.90;;;;;;4987405;28;20751;-57
2022/06/27 09:01:21;;;;;;;449.45;330.70;;;29.60;44.60;;;;;;4985878;28;20259;-54
2022/06/27 09:03:58;;;;;;;391.38;313.17;;;29.60;1.00;;;;;;4992087;28;20677;-55
2022/06/27 09:06:23;;;;;;;510.15;350.63;;;29.70;40.30;;;;;;4989512;28;20220;-54
2022/06/27 09:09:03;;;;;;;421.98;322.85;;;29.80;6.20;;;;;;4987661;28;20664;-54
2022/06/27 09:11:31;;;;;;;404.17;317.15;;;29.80;1.00;;;;;;4980828;28;20219;-55
2022/06/27 09:13:57;;;;;;;545.45;366.48;;;;;;;;;;4984564;28;20228;-54
2022/06/27 09:16:24;;;;;;;562.28;369.33;;;30.10;1.00;;;;;;4976151;28;20225;-54
2022/06/27 09:18:50;;;;;;;455.50;336.80;;;30.10;1.00;;;;;;4992896;28;20208;-54
2022/06/27 09:21:16;;;;;;;404.05;324.17;;;30.10;1.00;;;;;;4993032;28;20189;-54
2022/06/27 09:23:58;;;;;;;387.02;314.90;;;30.20;99.90;;;;;;4993111;28;20246;-54
2022/06/27 09:26:35;;;;;;;451.42;343.27;;;30.30;99.90;;;;;;4993754;28;20225;-54
2022/06/27 09:29:14;;;;;;;398.27;323.98;;;30.30;99.90;;;;;;4994262;28;20223;-54
2022/06/27 09:31:46;;;;;;;401.42;336.15;;;30.40;99.90;;;;;;4995364;28;20216;-54
2022/06/27 09:34:14;;;;;;;400.88;321.83;;;;;;;;;;4996067;28;20221;-54
2022/06/27 09:36:49;;;;;;;439.77;340.85;;;30.60;99.90;;;;;;4995547;28;20291;-54
2022/06/27 09:39:34;;;;;;;384.60;323.33;;;30.70;99.90;;;;;;4994367;28;20192;-54
2022/06/27 09:42:10;;;;;;;398.92;340.58;;;30.90;99.90;;;;;;4995445;28;20184;-54
2022/06/27 09:44:38;;;;;;;356.95;319.48;;;31.00;93.70;;;;;;4995468;28;20664;-54
2022/06/27 09:47:20;;;;;;;377.08;336.23;;;31.00;69.30;;;;;;4996041;28;21336;-54
2022/06/27 09:49:50;;;;;;;349.98;311.77;;;31.10;84.10;;;;;;4999163;28;20353;-55
2022/06/27 09:52:22;;;;;;;369.60;330.95;;;31.20;80.20;;;;;;5005063;28;20772;-56
2022/06/27 09:54:51;;;;;;;364.33;326.98;;;31.20;99.90;;;;;;5006120;28;20319;-55
2022/06/27 09:57:17;;;;;;;355.35;319.38;;;31.30;99.90;;;;;;5001867;28;20288;-55
2022/06/27 09:59:45;;;;;;;394.58;345.65;;;31.30;7.70;;;;;;4998960;28;20264;-55
2022/06/27 10:02:16;;;;;;;358.20;313.55;;;31.40;99.90;;;;;;5001128;28;20304;-55
2022/06/27 10:04:43;;;;;;;386.67;319.58;;;31.40;53.50;;;;;;4999611;28;20217;-55
2022/06/27 10:07:10;;;;;;;383.42;327.35;;;31.00;1.00;;;;;;4996245;28;20236;-54
2022/06/27 10:09:37;;;;;;;394.45;328.80;;;31.60;1.00;;;;;;4995788;28;21299;-55
2022/06/27 10:12:54;;;;;;;351.85;313.02;;;31.70;1.00;;;;;;4995513;28;20280;-55
2022/06/27 10:15:22;;;;;;;411.58;335.00;;;31.90;1.00;;;;;;4916819;29;20240;-55
2022/06/27 10:17:50;;;;;;;353.27;310.15;;;31.90;1.00;;;;;;4918348;29;20262;-55
2022/06/27 10:20:27;;;;;;;420.45;332.55;;;32.00;42.60;;;;;;4965862;28;20613;-55
2022/06/27 10:23:11;;;;;;;405.92;343.08;;;31.90;29.60;;;;;;4993602;28;20220;-55
2022/06/27 10:25:44;;;;;;;518.25;375.95;;;32.20;99.90;;;;;;4994289;28;20298;-54
2022/06/27 10:28:13;;;;;;;368.27;313.65;;;32.20;8.70;;;;;;4999954;28;20725;-55
2022/06/27 10:30:43;;;;;;;400.65;334.67;;;32.20;1.00;;;;;;5000955;28;20204;-55
2022/06/27 10:33:17;;;;;;;351.30;313.55;;;32.30;1.00;;;;;;5000320;28;20181;-55
2022/06/27 10:35:55;;;;;;;414.52;341.10;;;32.40;1.00;;;;;;5006004;28;20208;-55
2022/06/27 10:38:26;;;;;;;384.83;341.73;;;32.50;1.00;;;;;;4999110;28;20703;-55
2022/06/27 10:40:56;;;;;;;372.65;327.10;;;32.50;1.00;;;;;;5004217;28;20222;-55
2022/06/27 10:43:46;;;;;;;470.23;371.77;;;32.80;1.00;;;;;;4981008;28;20223;-55
2022/06/27 10:46:13;;;;;;;490.85;385.98;;;;;;;;;;4982861;28;20216;-55
2022/06/27 10:48:52;;;;;;;394.95;341.02;;;33.00;1.00;;;;;;4990113;28;20221;-55
2022/06/27 10:51:26;;;;;;;486.98;366.33;;;33.00;1.00;;;;;;4986796;28;20188;-55
2022/06/27 10:54:09;;;;;;;449.77;349.60;;;33.10;1.00;;;;;;4984704;28;20176;-55
2022/06/27 10:56:41;;;;;;;410.20;335.48;;;33.20;1.00;;;;;;4988617;28;20216;-55
2022/06/27 10:59:28;;;;;;;427.63;341.75;;;33.30;1.00;;;;;;4990575;28;20364;-55
2022/06/27 11:01:53;;;;;;;460.73;380.75;;;33.30;1.00;;;;;;4987770;28;20822;-55
2022/06/27 11:04:30;;;;;;;508.30;378.92;;;33.40;1.00;;;;;;4979235;28;20220;-55
2022/06/27 11:06:59;;;;;;;480.08;369.45;;;33.40;1.00;;;;;;4981494;28;20652;-55
2022/06/27 11:09:45;;;;;;;488.20;368.65;;;33.50;1.00;;;;;;4984594;28;20585;-55
2022/06/27 11:12:14;;;;;;;381.10;339.65;;;33.70;1.00;;;;;;4983852;28;20184;-55
2022/06/27 11:14:59;;;;;;;525.85;385.90;;;;;;;;;;4990530;28;20704;-55
2022/06/27 11:17:34;;;;;;;476.98;371.33;;;33.80;1.00;;;;;;4989405;28;20212;-55
2022/06/27 11:20:19;;;;;;;429.25;377.15;;;33.80;1.00;;;;;;4990790;28;20220;-55
2022/06/27 11:22:46;;;;;;;455.38;386.58;;;34.00;1.00;;;;;;4983915;28;20213;-55
2022/06/27 11:25:12;;;;;;;437.40;372.52;;;34.00;1.00;;;;;;4992481;28;20248;-55
2022/06/27 11:33:33;;;;;;;433.38;366.83;;;34.10;1.00;;;;;;4989425;28;20870;-55
2022/06/27 11:35:59;;;;;;;403.48;348.23;;;34.30;1.00;;;;;;4992454;28;20217;-55
2022/06/27 11:38:30;;;;;;;462.88;366.52;;;34.30;1.00;;;;;;4983481;28;20639;-55
2022/06/27 11:40:59;;;;;;;539.80;415.88;;;34.50;1.00;;;;;;4974785;28;20225;-55
2022/06/27 11:43:56;;;;;;;488.17;376.48;;;34.40;1.00;;;;;;4979675;28;20751;-55
2022/06/27 11:46:33;;;;;;;421.90;357.42;;;34.70;1.00;;;;;;4992329;28;20566;-55
2022/06/27 11:49:04;;;;;;;435.55;365.63;;;34.70;1.00;;;;;;4991835;28;20216;-55
2022/06/27 11:51:35;;;;;;;467.08;372.85;;;34.80;1.00;;;;;;4981398;28;20216;-55
2022/06/27 11:54:09;;;;;;;414.02;356.27;;;34.80;1.00;;;;;;4987475;28;20300;-55
2022/06/27 11:56:38;;;;;;;476.20;379.45;;;35.10;1.00;;;;;;4986915;28;20287;-55
2022/06/27 11:59:07;;;;;;;494.10;381.92;;;35.10;1.00;;;;;;4977911;28;20220;-55
2022/06/27 12:01:37;;;;;;;413.15;358.80;;;35.20;1.00;;;;;;4988160;28;23983;-54
2022/06/27 12:04:06;;;;;;;428.45;381.98;;;35.30;1.00;;;;;;4995249;28;20716;-55
2022/06/27 12:06:39;;;;;;;508.77;408.08;;;35.30;1.00;;;;;;4982339;28;20674;-54
2022/06/27 12:09:05;;;;;;;502.17;395.73;;;35.30;1.00;;;;;;4981136;28;20265;-55
2022/06/27 12:11:32;;;;;;;516.28;399.67;;;35.40;1.00;;;;;;4970522;28;20200;-55
2022/06/27 12:13:59;;;;;;;518.20;423.02;;;35.50;1.00;;;;;;4978454;28;20217;-55
2022/06/27 12:16:25;;;;;;;478.52;408.10;;;35.50;1.00;;;;;;4984839;28;20229;-55
2022/06/27 12:18:51;;;;;;;453.25;397.90;;;35.40;1.00;;;;;;4975493;28;20216;-55
2022/06/27 12:21:18;;;;;;;439.48;381.30;;;35.60;1.00;;;;;;4963418;28;20185;-55
2022/06/27 12:23:44;;;;;;;411.92;367.30;;;35.50;1.00;;;;;;4985730;28;20181;-55
2022/06/27 12:26:10;;;;;;;424.23;375.70;;;35.90;1.00;;;;;;4986907;28;20235;-55
2022/06/27 12:28:36;;;;;;;416.50;371.38;;;35.90;1.00;;;;;;4995287;28;20278;-55
2022/06/27 12:31:01;;;;;;;449.10;388.15;;;36.10;1.00;;;;;;4989222;28;20209;-55
2022/06/27 12:33:27;;;;;;;513.35;415.25;;;35.90;1.00;;;;;;4995317;28;20307;-55
2022/06/27 12:35:53;;;;;;;468.30;396.63;;;36.20;1.00;;;;;;4981081;28;20224;-55
2022/06/27 12:38:19;;;;;;;488.73;399.88;;;36.20;1.00;;;;;;4991355;28;20236;-55